createdAt,value
2023-04-01T00:00:07.727Z,4.55
2023-04-01T00:03:09.427Z,6.43
2023-04-01T00:06:15.071Z,2.65
2023-04-01T00:09:16.787Z,4.30
2023-04-01T00:12:18.422Z,2.87
2023-04-01T00:15:20.373Z,3.35
2023-04-01T00:18:22.782Z,3.15
2023-04-01T00:21:24.479Z,2.87
2023-04-01T00:24:26.322Z,2.85
2023-04-01T00:27:27.945Z,3.17
2023-04-01T00:30:29.616Z,3.30
2023-04-01T00:33:31.502Z,3.20
2023-04-01T00:36:33.183Z,6.00
2023-04-01T00:39:36.034Z,3.92
2023-04-01T00:42:37.715Z,2.95
2023-04-01T00:45:43.366Z,3.00
2023-04-01T00:48:56.798Z,4.75
2023-04-01T00:52:01.359Z,2.17
2023-04-01T00:55:05.768Z,5.45
2023-04-01T00:58:12.403Z,2.67
2023-04-01T01:01:14.247Z,3.63
2023-04-01T01:04:26.798Z,3.90
2023-04-01T01:07:37.572Z,5.62
2023-04-01T01:10:40.802Z,5.20
2023-04-01T01:13:49.965Z,5.53
2023-04-01T01:17:21.159Z,6.93
2023-04-01T01:20:39.015Z,5.70
2023-04-01T01:24:08.544Z,9.32
2023-04-01T01:27:21.006Z,8.02
2023-04-01T01:30:55.875Z,9.98
2023-04-01T01:34:19.031Z,7.28
2023-04-01T01:37:24.849Z,8.18
2023-04-01T01:40:28.691Z,7.32
2023-04-01T01:43:36.301Z,9.35
2023-04-01T01:46:40.769Z,9.88
2023-04-01T01:49:44.501Z,10.57
2023-04-01T01:52:46.188Z,9.73
2023-04-01T01:55:49.013Z,12.82
2023-04-01T01:58:54.135Z,14.70
2023-04-01T02:01:57.821Z,13.82
2023-04-01T02:04:59.939Z,16.45
2023-04-01T02:08:24.191Z,15.65
2023-04-01T02:11:34.680Z,11.02
2023-04-01T02:14:43.593Z,15.70
2023-04-01T02:17:47.574Z,14.02
2023-04-01T02:20:50.544Z,13.07
2023-04-01T02:23:54.530Z,11.63
2023-04-01T02:26:56.228Z,13.57
2023-04-01T02:29:58.972Z,11.12
2023-04-01T02:33:01.296Z,10.40
2023-04-01T02:36:03.181Z,9.10
2023-04-01T02:39:06.096Z,9.60
2023-04-01T02:42:07.733Z,10.55
2023-04-01T02:45:10.530Z,8.45
2023-04-01T02:48:13.819Z,9.65
2023-04-01T02:51:17.368Z,10.63
2023-04-01T02:54:20.501Z,10.23
2023-04-01T02:57:22.351Z,10.40
2023-04-01T03:00:24.111Z,10.02
2023-04-01T03:03:26.081Z,11.45
2023-04-01T03:06:27.838Z,13.98
2023-04-01T03:09:29.824Z,13.32
2023-04-01T03:12:31.514Z,11.80
2023-04-01T03:15:33.456Z,9.25
2023-04-01T03:18:35.370Z,18.33
2023-04-01T03:21:37.077Z,11.48
2023-04-01T03:24:38.775Z,13.18
2023-04-01T03:27:40.460Z,13.10
2023-04-01T03:30:42.189Z,12.90
2023-04-01T03:33:43.963Z,10.73
2023-04-01T03:36:45.831Z,10.90
2023-04-01T03:39:47.480Z,10.02
2023-04-01T03:42:49.516Z,11.82
2023-04-01T03:45:52.498Z,6.18
2023-04-01T03:48:54.194Z,8.27
2023-04-01T03:51:55.954Z,8.50
2023-04-01T03:54:57.644Z,7.95
2023-04-01T03:57:59.288Z,9.65
2023-04-01T04:01:01.027Z,10.20
2023-04-01T04:04:02.700Z,8.23
2023-04-01T04:07:04.677Z,8.15
2023-04-01T04:10:07.481Z,8.13
2023-04-01T04:13:09.172Z,8.65
2023-04-01T04:16:11.633Z,5.85
2023-04-01T04:19:13.347Z,6.70
2023-04-01T04:22:14.994Z,8.10
2023-04-01T04:25:16.797Z,6.03
2023-04-01T04:28:18.436Z,10.20
2023-04-01T04:31:22.264Z,5.78
2023-04-01T04:34:24.011Z,4.70
2023-04-01T04:37:26.839Z,6.25
2023-04-01T04:40:28.510Z,4.70
2023-04-01T04:43:30.288Z,5.28
2023-04-01T04:46:32.151Z,5.45
2023-04-01T04:49:33.802Z,8.18
2023-04-01T04:52:35.436Z,7.82
2023-04-01T04:55:37.115Z,6.30
2023-04-01T04:58:39.996Z,22.52
2023-04-01T05:01:41.768Z,10.02
2023-04-01T05:04:43.567Z,8.73
2023-04-01T05:07:45.334Z,9.95
2023-04-01T05:10:47.440Z,7.03
2023-04-01T05:13:49.306Z,3.80
2023-04-01T05:16:51.674Z,3.03
2023-04-01T05:19:53.463Z,3.30
2023-04-01T05:22:58.861Z,3.62
2023-04-01T05:26:04.686Z,5.68
2023-04-01T05:29:06.645Z,5.82
2023-04-01T05:32:08.433Z,4.40
2023-04-01T05:35:11.027Z,4.35
2023-04-01T05:38:12.681Z,4.10
2023-04-01T05:41:15.471Z,3.80
2023-04-01T05:44:17.130Z,5.60
2023-04-01T05:47:18.801Z,4.65
2023-04-01T05:50:20.828Z,7.70
2023-04-01T05:53:23.264Z,6.97
2023-04-01T05:56:24.967Z,4.12
2023-04-01T05:59:26.668Z,5.03
2023-04-01T06:02:28.449Z,3.62
2023-04-01T06:05:32.164Z,3.80
2023-04-01T06:08:33.966Z,2.30
2023-04-01T06:11:56.384Z,3.85
2023-04-01T06:15:21.545Z,2.03
2023-04-01T06:18:32.012Z,4.10
2023-04-01T06:22:15.980Z,2.60
2023-04-01T06:25:49.969Z,2.30
2023-04-01T06:28:54.508Z,2.33
2023-04-01T06:32:22.270Z,3.05
2023-04-01T06:36:02.447Z,5.60
2023-04-01T06:39:11.214Z,4.12
2023-04-01T06:42:36.761Z,4.00
2023-04-01T06:45:47.464Z,2.83
2023-04-01T06:48:52.040Z,4.62
2023-04-01T06:52:12.018Z,6.18
2023-04-01T06:55:38.903Z,7.47
2023-04-01T06:59:08.060Z,3.70
2023-04-01T07:02:28.426Z,6.45
2023-04-01T07:05:33.726Z,5.25
2023-04-01T07:08:41.481Z,5.57
2023-04-01T07:14:46.337Z,13.30
2023-04-01T07:17:53.864Z,10.98
2023-04-01T07:24:05.423Z,8.75
2023-04-01T07:27:11.936Z,4.35
2023-04-01T07:30:19.641Z,7.15
2023-04-01T07:33:34.768Z,6.18
2023-04-01T07:37:05.384Z,8.80
2023-04-01T07:40:20.491Z,4.75
2023-04-01T07:43:28.292Z,7.37
2023-04-01T07:46:48.646Z,8.60
2023-04-01T07:50:19.509Z,5.78
2023-04-01T07:53:28.614Z,5.15
2023-04-01T07:57:01.631Z,6.72
2023-04-01T08:00:10.068Z,19.10
2023-04-01T08:03:27.535Z,7.82
2023-04-01T08:06:31.969Z,6.68
2023-04-01T08:09:36.562Z,4.82
2023-04-01T08:12:38.133Z,5.68
2023-04-01T08:16:21.376Z,5.00
2023-04-01T08:19:57.354Z,5.03
2023-04-01T08:23:02.684Z,3.72
2023-04-01T08:26:21.991Z,2.42
2023-04-01T08:29:28.881Z,3.03
2023-04-01T08:32:44.222Z,4.82
2023-04-01T08:36:32.300Z,6.75
2023-04-01T08:39:39.626Z,4.25
2023-04-01T08:43:23.016Z,2.72
2023-04-01T08:46:46.306Z,3.95
2023-04-01T08:50:21.490Z,3.60
2023-04-01T08:53:44.803Z,7.32
2023-04-01T08:57:21.655Z,16.85
2023-04-01T09:00:23.296Z,5.93
2023-04-01T09:03:28.223Z,8.55
2023-04-01T09:06:52.122Z,7.40
2023-04-01T09:10:22.557Z,14.55
2023-04-01T09:13:55.168Z,1.95
2023-04-01T09:17:08.403Z,1.58
2023-04-01T09:20:41.280Z,2.05
2023-04-01T09:23:49.763Z,3.80
2023-04-01T09:27:26.660Z,3.65
2023-04-01T09:30:40.635Z,1.92
2023-04-01T09:34:27.135Z,2.53
2023-04-01T09:37:37.143Z,3.35
2023-04-01T09:40:49.088Z,4.03
2023-04-01T09:43:56.620Z,5.12
2023-04-01T09:47:19.904Z,7.70
2023-04-01T09:50:46.179Z,3.67
2023-04-01T09:54:38.054Z,8.02
2023-04-01T09:58:00.989Z,5.50
2023-04-01T10:01:33.373Z,7.12
2023-04-01T10:04:55.266Z,1.40
2023-04-01T10:07:59.662Z,2.40
2023-04-01T10:11:10.857Z,4.37
2023-04-01T10:14:56.199Z,2.00
2023-04-01T10:17:57.830Z,8.40
2023-04-01T10:21:31.279Z,3.55
2023-04-01T10:24:32.844Z,2.47
2023-04-01T10:28:09.379Z,2.50
2023-04-01T10:31:47.920Z,2.70
2023-04-01T10:35:07.990Z,2.20
2023-04-01T10:38:09.590Z,2.35
2023-04-01T10:41:34.295Z,3.55
2023-04-01T10:44:56.870Z,4.53
2023-04-01T10:48:19.749Z,1.92
2023-04-01T10:51:39.867Z,1.75
2023-04-01T10:55:04.993Z,8.77
2023-04-01T10:58:12.496Z,5.45
2023-04-01T11:01:33.075Z,4.47
2023-04-01T11:05:12.097Z,9.43
2023-04-01T11:08:52.348Z,3.92
2023-04-01T11:11:59.754Z,4.60
2023-04-01T11:18:59.991Z,2.35
2023-04-01T11:22:46.334Z,4.30
2023-04-01T11:25:53.770Z,3.97
2023-04-01T11:32:21.606Z,3.12
2023-04-01T11:35:44.967Z,21.08
2023-04-01T11:39:12.843Z,6.68
2023-04-01T11:42:45.034Z,14.95
2023-04-01T11:46:11.286Z,6.72
2023-04-01T11:49:33.311Z,15.23
2023-04-01T11:52:59.949Z,3.40
2023-04-01T11:56:48.761Z,4.40
2023-04-01T12:00:06.318Z,22.45
2023-04-01T12:03:34.406Z,26.83
2023-04-01T12:06:43.752Z,10.82
2023-04-01T12:09:53.578Z,28.33
2023-04-01T12:13:21.249Z,29.30
2023-04-01T12:16:25.762Z,8.15
2023-04-01T12:20:03.220Z,9.85
2023-04-01T12:23:16.576Z,13.05
2023-04-01T12:26:31.731Z,16.35
2023-04-01T12:29:51.540Z,4.15
2023-04-01T12:33:40.655Z,4.45
2023-04-01T12:36:49.924Z,5.55
2023-04-01T12:40:19.067Z,6.40
2023-04-01T12:43:23.537Z,2.37
2023-04-01T12:50:15.695Z,6.00
2023-04-01T12:56:30.396Z,11.27
2023-04-01T13:00:26.382Z,12.40
2023-04-01T13:04:05.519Z,9.43
2023-04-01T13:07:46.289Z,10.65
2023-04-01T13:11:18.629Z,25.45
2023-04-01T13:14:33.197Z,14.68
2023-04-01T13:17:39.561Z,29.00
2023-04-01T13:21:02.078Z,24.65
2023-04-01T13:24:10.390Z,14.70
2023-04-01T13:27:22.210Z,7.72
2023-04-01T13:31:18.116Z,6.35
2023-04-01T13:34:40.216Z,5.78
2023-04-01T13:38:00.167Z,11.45
2023-04-01T13:41:21.771Z,6.70
2023-04-01T13:44:41.260Z,5.32
2023-04-01T13:48:15.041Z,1.80
2023-04-01T13:51:39.491Z,8.52
2023-04-01T13:55:05.646Z,13.20
2023-04-01T13:58:31.669Z,6.05
2023-04-01T14:01:45.382Z,1.85
2023-04-01T14:05:08.507Z,2.67
2023-04-01T14:08:44.759Z,2.28
2023-04-01T14:12:05.570Z,3.53
2023-04-01T14:15:49.616Z,9.52
2023-04-01T14:19:04.883Z,3.45
2023-04-01T14:22:39.002Z,7.60
2023-04-01T14:26:03.575Z,3.25
2023-04-01T14:29:36.349Z,4.30
2023-04-01T14:33:05.108Z,1.80
2023-04-01T14:36:31.565Z,5.80
2023-04-01T14:40:07.405Z,5.75
2023-04-01T14:43:46.232Z,3.83
2023-04-01T14:50:03.814Z,1.92
2023-04-01T14:53:08.585Z,2.17
2023-04-01T14:56:10.402Z,3.20
2023-04-01T14:59:20.845Z,1.80
2023-04-01T15:02:35.971Z,5.20
2023-04-01T15:05:51.609Z,5.28
2023-04-01T15:09:07.390Z,1.83
2023-04-01T15:12:27.789Z,7.05
2023-04-01T15:15:54.497Z,2.58
2023-04-01T15:19:11.944Z,2.58
2023-04-01T15:22:22.811Z,1.85
2023-04-01T15:25:36.601Z,4.10
2023-04-01T15:28:52.645Z,2.30
2023-04-01T15:32:03.935Z,5.28
2023-04-01T15:35:26.261Z,2.00
2023-04-01T15:38:39.571Z,7.37
2023-04-01T15:42:20.519Z,2.47
2023-04-01T15:45:25.119Z,3.75
2023-04-01T15:48:43.079Z,7.00
2023-04-01T15:55:16.858Z,1.77
2023-04-01T15:58:36.556Z,1.35
2023-04-01T16:01:57.473Z,1.92
2023-04-01T16:05:18.195Z,2.55
2023-04-01T16:08:55.533Z,3.62
2023-04-01T16:12:09.435Z,3.50
2023-04-01T16:15:23.772Z,3.28
2023-04-01T16:18:31.326Z,3.42
2023-04-01T16:21:49.324Z,2.58
2023-04-01T16:25:28.822Z,2.37
2023-04-01T16:28:46.612Z,4.62
2023-04-01T16:32:12.793Z,2.78
2023-04-01T16:35:24.018Z,2.70
2023-04-01T16:38:32.134Z,2.17
2023-04-01T16:41:39.804Z,2.50
2023-04-01T16:44:51.011Z,4.00
2023-04-01T16:48:14.514Z,3.62
2023-04-01T16:51:19.346Z,5.60
2023-04-01T16:54:41.601Z,4.47
2023-04-01T16:58:02.372Z,2.65
2023-04-01T17:01:10.934Z,5.30
2023-04-01T17:04:22.035Z,2.72
2023-04-01T17:07:24.161Z,5.43
2023-04-01T17:10:36.115Z,1.90
2023-04-01T17:13:41.474Z,1.70
2023-04-01T17:16:47.011Z,1.75
2023-04-01T17:20:21.572Z,2.12
2023-04-01T17:23:45.388Z,1.65
2023-04-01T17:27:06.638Z,1.77
2023-04-01T17:30:14.943Z,2.17
2023-04-01T17:33:30.423Z,2.00
2023-04-01T17:36:39.722Z,3.85
2023-04-01T17:39:54.185Z,2.05
2023-04-01T17:43:20.412Z,3.45
2023-04-01T17:46:55.080Z,5.20
2023-04-01T17:50:23.723Z,5.20
2023-04-01T17:53:37.926Z,10.82
2023-04-01T17:57:25.612Z,14.55
2023-04-01T18:00:54.338Z,15.02
2023-04-01T18:04:04.522Z,9.93
2023-04-01T18:07:32.597Z,8.73
2023-04-01T18:10:58.919Z,5.75
2023-04-01T18:14:21.325Z,16.20
2023-04-01T18:18:01.971Z,5.22
2023-04-01T18:21:26.161Z,6.53
2023-04-01T18:24:48.985Z,6.15
2023-04-01T18:27:58.108Z,6.47
2023-04-01T18:31:03.398Z,2.22
2023-04-01T18:34:18.861Z,4.22
2023-04-01T18:37:30.270Z,4.10
2023-04-01T18:40:36.071Z,3.65
2023-04-01T18:43:45.382Z,6.90
2023-04-01T18:47:16.281Z,4.65
2023-04-01T18:50:45.664Z,4.90
2023-04-01T18:54:03.517Z,7.18
2023-04-01T18:57:18.430Z,6.82
2023-04-01T19:00:29.570Z,4.43
2023-04-01T19:03:58.298Z,3.72
2023-04-01T19:07:04.236Z,7.35
2023-04-01T19:10:26.252Z,4.07
2023-04-01T19:13:51.540Z,3.65
2023-04-01T19:17:14.715Z,4.03
2023-04-01T19:21:01.173Z,3.62
2023-04-01T19:24:28.770Z,4.53
2023-04-01T19:27:36.337Z,4.72
2023-04-01T19:34:05.467Z,5.47
2023-04-01T19:37:51.214Z,6.40
2023-04-01T19:40:55.324Z,5.57
2023-04-01T19:44:32.665Z,5.62
2023-04-01T19:47:51.204Z,3.92
2023-04-01T19:51:14.692Z,4.32
2023-04-01T19:54:57.466Z,6.30
2023-04-01T19:58:14.526Z,6.22
2023-04-01T20:01:32.066Z,10.25
2023-04-01T20:04:49.142Z,9.63
2023-04-01T20:08:00.697Z,7.07
2023-04-01T20:11:11.448Z,8.00
2023-04-01T20:14:38.138Z,7.20
2023-04-01T20:17:47.519Z,5.75
2023-04-01T20:21:19.783Z,6.05
2023-04-01T20:24:48.606Z,5.55
2023-04-01T20:27:55.074Z,3.85
2023-04-01T20:31:27.396Z,5.78
2023-04-01T20:35:07.223Z,6.90
2023-04-01T20:38:53.730Z,7.18
2023-04-01T20:41:58.302Z,10.70
2023-04-01T20:45:29.263Z,4.70
2023-04-01T20:49:01.922Z,4.55
2023-04-01T20:52:21.195Z,5.60
2023-04-01T20:55:35.614Z,5.72
2023-04-01T20:59:03.294Z,5.12
2023-04-01T21:02:14.104Z,6.87
2023-04-01T21:05:34.998Z,6.22
2023-04-01T21:09:00.665Z,7.25
2023-04-01T21:12:25.126Z,4.62
2023-04-01T21:15:33.155Z,6.78
2023-04-01T21:19:04.259Z,5.90
2023-04-01T21:22:43.275Z,5.85
2023-04-01T21:26:05.169Z,3.83
2023-04-01T21:29:12.730Z,3.53
2023-04-01T21:35:33.511Z,3.00
2023-04-01T21:38:50.291Z,5.20
2023-04-01T21:42:04.105Z,5.03
2023-04-01T21:45:21.118Z,4.50
2023-04-01T21:48:44.046Z,4.33
2023-04-01T21:52:21.700Z,3.90
2023-04-01T21:55:49.747Z,5.95
2023-04-01T21:59:28.963Z,3.53
2023-04-01T22:03:26.893Z,4.97
2023-04-01T22:06:31.386Z,6.03
2023-04-01T22:09:51.962Z,6.90
2023-04-01T22:13:00.498Z,4.10
2023-04-01T22:16:35.498Z,6.47
2023-04-01T22:19:51.854Z,3.95
2023-04-01T22:23:17.928Z,3.10
2023-04-01T22:26:39.653Z,10.88
2023-04-01T22:30:11.519Z,6.30
2023-04-01T22:33:21.731Z,68.03
2023-04-01T22:36:45.985Z,76.37
2023-04-01T22:39:56.752Z,80.82
2023-04-01T22:43:04.486Z,41.70
2023-04-01T22:46:32.238Z,7.90
2023-04-01T22:49:40.925Z,13.70
2023-04-01T22:52:46.899Z,6.70
2023-04-01T22:55:53.105Z,5.07
2023-04-01T22:59:01.400Z,7.40
2023-04-01T23:02:25.005Z,5.03
2023-04-01T23:05:29.590Z,4.28
2023-04-01T23:08:55.382Z,3.62
2023-04-01T23:12:04.105Z,5.05
2023-04-01T23:15:06.639Z,4.40
2023-04-01T23:18:23.127Z,6.40
2023-04-01T23:21:41.266Z,5.95
2023-04-01T23:25:11.362Z,4.75
2023-04-01T23:28:15.950Z,8.43
2023-04-01T23:31:36.755Z,8.57
2023-04-01T23:34:38.444Z,8.15
2023-04-01T23:37:40.109Z,11.32
2023-04-01T23:40:42.182Z,8.90
2023-04-01T23:43:46.377Z,12.37
2023-04-01T23:46:49.946Z,13.55
2023-04-01T23:50:04.389Z,12.55
2023-04-01T23:53:19.811Z,11.77
2023-04-01T23:56:22.037Z,9.77
2023-04-01T23:59:31.756Z,9.32
